createdAt,value
2018-12-29T00:02:28.424Z,102450.5
2018-12-29T00:05:56.408Z,102448.87
2018-12-29T00:09:24.358Z,102458.68
2018-12-29T00:12:52.229Z,102451.28
2018-12-29T00:16:20.147Z,102448.89
2018-12-29T00:19:49.070Z,102446.48
2018-12-29T00:23:17.011Z,102448.4
2018-12-29T00:26:45.023Z,102451.31
2018-12-29T00:30:13.021Z,102451.31
2018-12-29T00:33:40.960Z,102442.76
2018-12-29T00:37:08.874Z,102449.04
2018-12-29T00:40:36.778Z,102439.21
2018-12-29T00:44:04.708Z,102441.63
2018-12-29T00:47:32.742Z,102444.7
2018-12-29T00:51:00.638Z,102439.54
2018-12-29T00:54:29.574Z,102440.34
2018-12-29T00:57:57.466Z,102444.37
2018-12-29T01:01:25.344Z,102437.12
2018-12-29T01:04:53.233Z,102441.31
2018-12-29T01:08:21.111Z,102440.85
2018-12-29T01:11:49.028Z,102441.32
2018-12-29T01:15:16.918Z,102446.46
2018-12-29T01:18:44.825Z,102444.37
2018-12-29T01:22:12.718Z,102447.25
2018-12-29T01:25:40.670Z,102437.6
2018-12-29T01:29:08.583Z,102441.31
2018-12-29T01:32:36.591Z,102442.27
2018-12-29T01:36:04.481Z,102438.59
2018-12-29T01:39:32.395Z,102438.75
2018-12-29T01:43:00.372Z,102439.39
2018-12-29T01:46:28.278Z,102445.03
2018-12-29T01:49:57.095Z,102457.26
2018-12-29T01:53:25.025Z,102446
2018-12-29T01:56:52.961Z,102446.15
2018-12-29T02:00:20.838Z,102441.5
2018-12-29T02:03:48.735Z,102448.42
2018-12-29T02:07:16.630Z,102447.62
2018-12-29T02:10:44.525Z,102447.62
2018-12-29T02:14:12.498Z,102443.12
2018-12-29T02:17:40.430Z,102435.06
2018-12-29T02:21:08.334Z,102436.32
2018-12-29T02:24:36.240Z,102434.43
2018-12-29T02:28:05.209Z,102443.89
2018-12-29T02:31:33.138Z,102438.42
2018-12-29T02:35:02.150Z,102435.2
2018-12-29T02:38:29.996Z,102431.65
2018-12-29T02:41:57.895Z,102431.03
2018-12-29T02:45:32.931Z,102433.75
2018-12-29T02:48:57.677Z,102438.42
2018-12-29T02:52:25.562Z,102429.4
2018-12-29T02:55:53.504Z,102420.73
2018-12-29T02:59:21.398Z,102422.17
2018-12-29T03:02:49.264Z,102424.57
2018-12-29T03:06:17.165Z,102422.82
2018-12-29T03:09:45.062Z,102408.83
2018-12-29T03:13:12.980Z,102409.46
2018-12-29T03:16:41.149Z,102403.05
2018-12-29T03:20:09.043Z,102402.25
2018-12-29T03:23:37.022Z,102386.46
2018-12-29T03:27:04.900Z,102385.17
2018-12-29T03:30:32.760Z,102378.42
2018-12-29T03:34:00.687Z,102377.63
2018-12-29T03:37:28.612Z,102371.84
2018-12-29T03:40:56.612Z,102380.34
2018-12-29T03:44:24.578Z,102371.65
2018-12-29T03:47:52.458Z,102372.77
2018-12-29T03:51:21.383Z,102376.17
2018-12-29T03:54:49.328Z,102374.89
2018-12-29T03:58:17.265Z,102378.1
2018-12-29T04:01:45.343Z,102367.46
2018-12-29T04:05:13.216Z,102372.94
2018-12-29T04:08:41.145Z,102381.79
2018-12-29T04:12:09.077Z,102363.28
2018-12-29T04:15:36.996Z,102367.62
2018-12-29T04:19:04.930Z,102365.21
2018-12-29T04:22:32.859Z,102368.79
2018-12-29T04:26:00.771Z,102370.73
2018-12-29T04:29:28.674Z,102367.99
2018-12-29T04:32:56.581Z,102369.75
2018-12-29T04:36:24.468Z,102376.53
2018-12-29T04:39:52.375Z,102380.07
2018-12-29T04:43:20.273Z,102375.06
2018-12-29T04:46:49.274Z,102370.4
2018-12-29T04:50:17.184Z,102380.06
2018-12-29T04:53:46.081Z,102376.67
2018-12-29T04:57:13.955Z,102368.32
2018-12-29T05:00:41.885Z,102373.14
2018-12-29T05:04:09.802Z,102371.99
2018-12-29T05:07:40.618Z,102365.08
2018-12-29T05:11:09.495Z,102374.54
2018-12-29T05:14:37.559Z,102374.24
2018-12-29T05:18:05.459Z,102373.92
2018-12-29T05:21:33.382Z,102375.68
2018-12-29T05:25:01.407Z,102375.68
2018-12-29T05:28:29.254Z,102384.84
2018-12-29T05:31:57.129Z,102392.1
2018-12-29T05:35:25.097Z,102381.17
2018-12-29T05:38:52.960Z,102387.44
2018-12-29T05:42:22.406Z,102374.07
2018-12-29T05:45:50.321Z,102382.29
2018-12-29T05:49:19.440Z,102375.37
2018-12-29T05:52:47.358Z,102372.79
2018-12-29T05:56:15.313Z,102384.39
2018-12-29T05:59:44.171Z,102376.32
2018-12-29T06:03:12.112Z,102374.87
2018-12-29T06:06:41.004Z,102374.22
2018-12-29T06:10:08.980Z,102376.15
2018-12-29T06:13:36.918Z,102379.86
2018-12-29T06:17:04.818Z,102378.57
2018-12-29T06:20:32.716Z,102378.9
2018-12-29T06:24:00.620Z,102380.83
2018-12-29T06:27:28.527Z,102378.71
2018-12-29T06:30:57.476Z,102380.67
2018-12-29T06:34:25.418Z,102381.96
2018-12-29T06:37:53.318Z,102384.53
2018-12-29T06:41:21.223Z,102388.07
2018-12-29T06:44:49.102Z,102377.94
2018-12-29T06:48:17.015Z,102385.34
2018-12-29T06:51:45.147Z,102375.03
2018-12-29T06:55:13.018Z,102378.1
2018-12-29T06:58:40.889Z,102387.75
2018-12-29T07:02:08.783Z,102387.9
2018-12-29T07:05:36.640Z,102389.68
2018-12-29T07:09:04.525Z,102384.69
2018-12-29T07:12:33.488Z,102375.04
2018-12-29T07:16:02.358Z,102377.14
2018-12-29T07:19:30.264Z,102376
2018-12-29T07:22:59.139Z,102377.12
2018-12-29T07:26:27.032Z,102370.84
2018-12-29T07:29:54.949Z,102370.5
2018-12-29T07:33:22.871Z,102374.7
2018-12-29T07:36:50.730Z,102374.06
2018-12-29T07:40:19.641Z,102378.39
2018-12-29T07:43:47.539Z,102376.79
2018-12-29T07:47:15.439Z,102378.87
2018-12-29T07:50:43.331Z,102375.28
2018-12-29T07:54:11.286Z,102376.59
2018-12-29T07:57:39.102Z,102379.15
2018-12-29T08:01:07.005Z,102379.97
2018-12-29T08:04:34.912Z,102376.43
2018-12-29T08:08:02.804Z,102374.03
2018-12-29T08:11:30.809Z,102370.12
2018-12-29T08:14:58.662Z,102369.81
2018-12-29T08:18:26.539Z,102347.4
2018-12-29T08:21:54.446Z,102333.22
2018-12-29T08:25:22.348Z,102347.54
2018-12-29T08:29:41.839Z,102353.6
2018-12-29T08:33:12.116Z,102357.96
